Observation data for Paducah on 05/25/2019      Previous  Date  Next       Current Mesonet Observations  Soil Data  Daily Summary Page  Observations in Plain Language
KPAD 250500Z 13007KT 18/17 A2996 RMK A01 T01750166  RH  099%=      5-min Rain = 0
KPAD 250505Z 13008KT 18/17 A2996 RMK A01 T01750166  RH  099%=      5-min Rain = 0
KPAD 250510Z 14008KT 17/17 A2996 RMK A01 T01740166  RH  099%=      5-min Rain = 0
KPAD 250515Z 14007KT 17/17 A2996 RMK A01 T01730165  RH  099%=      5-min Rain = 0
KPAD 250520Z 13008KT 17/16 A2996 RMK A01 T01720164  RH  099%=      5-min Rain = 0
KPAD 250525Z 13007KT 17/16 A2996 RMK A01 T01720163  RH  099%=      5-min Rain = 0
KPAD 250530Z 14007KT 17/16 A2996 RMK A01 T01710163  RH  100%=      5-min Rain = 0
KPAD 250535Z 13006KT 17/16 A2996 RMK A01 T01710163  RH  100%=      5-min Rain = 0
KPAD 250540Z 13006KT 17/16 A2996 RMK A01 T01710163  RH  100%=      5-min Rain = 0
KPAD 250545Z 14007KT 17/16 A2996 RMK A01 T01710163  RH  100%=      5-min Rain = 0
KPAD 250550Z 14006KT 17/16 A2996 RMK A01 T01710163  RH  100%=      5-min Rain = 0
KPAD 250555Z 13005KT 17/16 A2996 RMK A01 T01710163  RH  100%=      5-min Rain = 0
KPAD 250600Z 13006KT 17/16 A2997 RMK A01 T01710163  RH  100%=      5-min Rain = 0
KPAD 250605Z 13006KT 17/16 A2996 RMK A01 T01720164  RH  100%=      5-min Rain = 0
KPAD 250610Z 13004KT 17/16 A2996 RMK A01 T01720163  RH  100%=      5-min Rain = 0
KPAD 250615Z 13006KT 17/16 A2996 RMK A01 T01720164  RH  100%=      5-min Rain = 0
KPAD 250620Z 13006KT 17/16 A2996 RMK A01 T01720164  RH  100%=      5-min Rain = 0
KPAD 250625Z 13006KT 17/16 A2996 RMK A01 T01720164  RH  100%=      5-min Rain = 0
KPAD 250630Z 12005KT 17/16 A2996 RMK A01 T01730164  RH  100%=      5-min Rain = 0
KPAD 250635Z 13006KT 17/17 A2996 RMK A01 T01730165  RH  100%=      5-min Rain = 0
KPAD 250640Z 13006KT 17/17 A2996 RMK A01 T01730165  RH  100%=      5-min Rain = 0
KPAD 250645Z 13007KT 17/17 A2996 RMK A01 T01730165  RH  100%=      5-min Rain = 0
KPAD 250650Z 13008KT 17/17 A2996 RMK A01 T01730165  RH  100%=      5-min Rain = 0
KPAD 250655Z 13007KT 17/17 A2996 RMK A01 T01730165  RH  100%=      5-min Rain = 0
KPAD 250700Z 12006KT 17/16 A2995 RMK A01 T01730164  RH  100%=      5-min Rain = 0
KPAD 250705Z 13006KT 17/17 A2995 RMK A01 T01730165  RH  100%=      5-min Rain = 0
KPAD 250710Z 13006KT 17/16 A2995 RMK A01 T01730164  RH  100%=      5-min Rain = 0
KPAD 250715Z 13006KT 17/16 A2995 RMK A01 T01720164  RH  100%=      5-min Rain = 0
KPAD 250720Z 13006KT 17/16 A2994 RMK A01 T01720164  RH  100%=      5-min Rain = 0
KPAD 250725Z 13006KT 17/16 A2994 RMK A01 T01720164  RH  100%=      5-min Rain = 0
KPAD 250730Z 14006KT 17/16 A2994 RMK A01 T01730164  RH  100%=      5-min Rain = 0
KPAD 250735Z 14006KT 17/17 A2994 RMK A01 T01730165  RH  100%=      5-min Rain = 0
KPAD 250740Z 13006KT 17/17 A2993 RMK A01 T01740165  RH  100%=      5-min Rain = 0
KPAD 250745Z 14005KT 17/17 A2994 RMK A01 T01740166  RH  100%=      5-min Rain = 0
KPAD 250750Z 14006KT 18/17 A2994 RMK A01 T01750166  RH  100%=      5-min Rain = 0
KPAD 250755Z 14006KT 18/17 A2994 RMK A01 T01750167  RH  100%=      5-min Rain = 0
KPAD 250800Z 14005KT 18/17 A2994 RMK A01 T01750167  RH  100%=      5-min Rain = 0
KPAD 250805Z 14005KT 18/17 A2994 RMK A01 T01760168  RH  100%=      5-min Rain = 0
KPAD 250810Z 13005KT 18/17 A2994 RMK A01 T01770168  RH  100%=      5-min Rain = 0
KPAD 250815Z 13005KT 18/17 A2994 RMK A01 T01770168  RH  100%=      5-min Rain = 0
KPAD 250820Z 13004KT 18/17 A2994 RMK A01 T01780169  RH  100%=      5-min Rain = 0
KPAD 250825Z 13005KT 18/17 A2993 RMK A01 T01780170  RH  100%=      5-min Rain = 0
KPAD 250830Z 13005KT 18/17 A2993 RMK A01 T01780170  RH  100%=      5-min Rain = 0
KPAD 250835Z 13005KT 18/17 A2993 RMK A01 T01780169  RH  100%=      5-min Rain = 0
KPAD 250840Z 13004KT 18/17 A2993 RMK A01 T01770169  RH  100%=      5-min Rain = 0
KPAD 250845Z 13005KT 18/17 A2993 RMK A01 T01780169  RH  100%=      5-min Rain = 0
KPAD 250850Z 13004KT 18/17 A2993 RMK A01 T01790170  RH  100%=      5-min Rain = 0
KPAD 250855Z 13004KT 18/17 A2994 RMK A01 T01800171  RH  100%=      5-min Rain = 0
KPAD 250900Z 12004KT 18/17 A2993 RMK A01 T01800172  RH  100%=      5-min Rain = 0
KPAD 250905Z 12003KT 18/17 A2993 RMK A01 T01810172  RH  100%=      5-min Rain = 0
KPAD 250910Z 12003KT 18/17 A2993 RMK A01 T01810172  RH  100%=      5-min Rain = 0
KPAD 250915Z 12004KT 18/17 A2993 RMK A01 T01810172  RH  100%=      5-min Rain = 0
KPAD 250920Z 12005KT 18/17 A2993 RMK A01 T01810173  RH  100%=      5-min Rain = 0
KPAD 250925Z 12006KT 18/17 A2993 RMK A01 T01820173  RH  100%=      5-min Rain = 0
KPAD 250930Z 12007KT 18/17 A2993 RMK A01 T01820173  RH  100%=      5-min Rain = 0
KPAD 250935Z 12007KT 18/17 A2993 RMK A01 T01820174  RH  100%=      5-min Rain = 0
KPAD 250940Z 12007KT 18/17 A2993 RMK A01 T01830174  RH  100%=      5-min Rain = 0
KPAD 250945Z 13007KT 18/18 A2993 RMK A01 T01830175  RH  100%=      5-min Rain = 0
KPAD 250950Z 13007KT 18/18 A2993 RMK A01 T01840175  RH  100%=      5-min Rain = 0
KPAD 250955Z 13006KT 18/18 A2993 RMK A01 T01840176  RH  100%=      5-min Rain = 0
KPAD 251000Z 13006KT 19/18 A2993 RMK A01 T01850176  RH  100%=      5-min Rain = 0
KPAD 251005Z 13006KT 19/18 A2993 RMK A01 T01860177  RH  100%=      5-min Rain = 0
KPAD 251010Z 13006KT 19/18 A2993 RMK A01 T01870178  RH  100%=      5-min Rain = 0
KPAD 251015Z 14007KT 19/18 A2993 RMK A01 T01880179  RH  100%=      5-min Rain = 0
KPAD 251020Z 14007KT 19/18 A2993 RMK A01 T01880180  RH  100%=      5-min Rain = 0
KPAD 251025Z 14007KT 19/18 A2993 RMK A01 T01880180  RH  100%=      5-min Rain = 0
KPAD 251030Z 15006KT 19/18 A2994 RMK A01 T01880179  RH  100%=      5-min Rain = 0
KPAD 251035Z 15006KT 19/18 A2994 RMK A01 T01880179  RH  100%=      5-min Rain = 0
KPAD 251040Z 15006KT 19/18 A2994 RMK A01 T01880179  RH  100%=      5-min Rain = 0
KPAD 251045Z 15005KT 19/18 A2994 RMK A01 T01880179  RH  100%=      5-min Rain = 0
KPAD 251050Z 16005KT 19/18 A2994 RMK A01 T01880179  RH  100%=      5-min Rain = 0
KPAD 251055Z 15005KT 19/18 A2994 RMK A01 T01870179  RH  100%=      5-min Rain = 0
KPAD 251100Z 16005KT 19/18 A2994 RMK A01 T01870178  RH  100%=      5-min Rain = 0
KPAD 251105Z 17004KT 19/18 A2994 RMK A01 T01860177  RH  100%=      5-min Rain = 0
KPAD 251110Z 17004KT 19/18 A2994 RMK A01 T01850177  RH  100%=      5-min Rain = 0
KPAD 251115Z 17004KT 19/18 A2994 RMK A01 T01850176  RH  100%=      5-min Rain = 0
KPAD 251120Z 17004KT 18/18 A2995 RMK A01 T01840175  RH  100%=      5-min Rain = 0
KPAD 251125Z 17004KT 18/18 A2995 RMK A01 T01840175  RH  100%=      5-min Rain = 0
KPAD 251130Z 16005KT 18/18 A2995 RMK A01 T01840176  RH  100%=      5-min Rain = 0
KPAD 251135Z 16005KT 19/18 A2995 RMK A01 T01850176  RH  100%=      5-min Rain = 0
KPAD 251140Z 15005KT 19/18 A2995 RMK A01 T01860177  RH  100%=      5-min Rain = 0
KPAD 251145Z 15004KT 19/18 A2995 RMK A01 T01860178  RH  100%=      5-min Rain = 0
KPAD 251150Z 15004KT 19/18 A2996 RMK A01 T01860178  RH  100%=      5-min Rain = 0
KPAD 251155Z 15003KT 19/18 A2996 RMK A01 T01860178  RH  100%=      5-min Rain = 0
KPAD 251200Z 15003KT 19/18 A2996 RMK A01 T01870178  RH  100%=      5-min Rain = 0
KPAD 251205Z 15003KT 19/18 A2996 RMK A01 T01880179  RH  100%=      5-min Rain = 0
KPAD 251210Z 14003KT 19/18 A2996 RMK A01 T01890180  RH  100%=      5-min Rain = 0
KPAD 251215Z 15003KT 19/18 A2996 RMK A01 T01900181  RH  100%=      5-min Rain = 0
KPAD 251220Z 15004KT 19/18 A2996 RMK A01 T01910182  RH  100%=      5-min Rain = 0
KPAD 251225Z 15004KT 19/18 A2996 RMK A01 T01920183  RH  100%=      5-min Rain = 0
KPAD 251230Z 15004KT 19/18 A2997 RMK A01 T01920184  RH  100%=      5-min Rain = 0
KPAD 251235Z 15004KT 19/18 A2997 RMK A01 T01930184  RH  100%=      5-min Rain = 0
KPAD 251240Z 15004KT 20/19 A2997 RMK A01 T01950186  RH  100%=      5-min Rain = 0
KPAD 251245Z 15004KT 20/19 A2997 RMK A01 T01970188  RH  100%=      5-min Rain = 0
KPAD 251250Z 15005KT 20/19 A2997 RMK A01 T01980189  RH  100%=      5-min Rain = 0
KPAD 251255Z 15005KT 20/19 A2997 RMK A01 T01990189  RH  100%=      5-min Rain = 0
KPAD 251300Z 15005KT 20/19 A2997 RMK A01 T02000190  RH  100%=      5-min Rain = 0
KPAD 251305Z 15006KT 20/19 A2998 RMK A01 T02010191  RH  100%=      5-min Rain = 0
KPAD 251310Z 16006KT 20/19 A2998 RMK A01 T02020193  RH  100%=      5-min Rain = 0
KPAD 251315Z 15006KT 20/19 A2998 RMK A01 T02030193  RH  100%=      5-min Rain = 0
KPAD 251320Z 15006KT 20/20 A2998 RMK A01 T02040195  RH  100%=      5-min Rain = 0
KPAD 251325Z 15006KT 21/20 A2998 RMK A01 T02060196  RH  099%=      5-min Rain = 0
KPAD 251330Z 16006KT 21/20 A2998 RMK A01 T02060196  RH  099%=      5-min Rain = 0
KPAD 251335Z 16008KT 21/20 A2999 RMK A01 T02070197  RH  099%=      5-min Rain = 0
KPAD 251340Z 16007KT 21/20 A2999 RMK A01 T02070197  RH  099%=      5-min Rain = 0
KPAD 251345Z 16007KT 21/20 A2999 RMK A01 T02090198  RH  099%=      5-min Rain = 0
KPAD 251350Z 16008KT 21/20 A2999 RMK A01 T02100199  RH  099%=      5-min Rain = 0
KPAD 251355Z 16008KT 21/20 A2999 RMK A01 T02110200  RH  099%=      5-min Rain = 0
KPAD 251400Z 16008KT 21/20 A2999 RMK A01 T02110199  RH  099%=      5-min Rain = 0
KPAD 251405Z 16008KT 21/20 A2999 RMK A01 T02130201  RH  098%=      5-min Rain = 0
KPAD 251410Z 17008KT 22/20 A2999 RMK A01 T02160204  RH  098%=      5-min Rain = 0
KPAD 251415Z 16009KT 22/21 A2999 RMK A01 T02190206  RH  098%=      5-min Rain = 0
KPAD 251420Z 17009KT 22/21 A2999 RMK A01 T02210207  RH  097%=      5-min Rain = 0
KPAD 251425Z 17010KT 22/21 A2999 RMK A01 T02230207  RH  096%=      5-min Rain = 0
KPAD 251430Z 18012KT 22/21 A30 RMK A01 T02240206  RH  095%=      5-min Rain = 0
KPAD 251435Z 17012G17KT 23/20 A30 RMK A01 T02250204  RH  094%=      5-min Rain = 0
KPAD 251440Z 17011KT 23/20 A30 RMK A01 T02260203  RH  092%=      5-min Rain = 0
KPAD 251445Z 17012KT 23/20 A30 RMK A01 T02270201  RH  091%=      5-min Rain = 0
KPAD 251450Z 18013KT 23/20 A30 RMK A01 T02260198  RH  089%=      5-min Rain = 0
KPAD 251455Z 18013G18KT 23/20 A30 RMK A01 T02270197  RH  088%=      5-min Rain = 0
KPAD 251500Z 18011KT 23/20 A30 RMK A01 T02300198  RH  087%=      5-min Rain = 0
KPAD 251505Z 17010KT 23/20 A30 RMK A01 T02320198  RH  086%=      5-min Rain = 0
KPAD 251510Z 17011G16KT 23/20 A30 RMK A01 T02330199  RH  086%=      5-min Rain = 0
KPAD 251515Z 18011KT 23/20 A30 RMK A01 T02330198  RH  085%=      5-min Rain = 0
KPAD 251520Z 18009KT 23/20 A30 RMK A01 T02340200  RH  086%=      5-min Rain = 0
KPAD 251525Z 18009G14KT 24/20 A30 RMK A01 T02350200  RH  085%=      5-min Rain = 0
KPAD 251530Z 19008KT 24/20 A30 RMK A01 T02370202  RH  085%=      5-min Rain = 0
KPAD 251535Z 18010KT 24/20 A30 RMK A01 T02400202  RH  084%=      5-min Rain = 0
KPAD 251540Z 18010KT 24/20 A30 RMK A01 T02390199  RH  083%=      5-min Rain = 0
KPAD 251545Z 19009KT 24/20 A30 RMK A01 T02390200  RH  083%=      5-min Rain = 0
KPAD 251550Z 19011G16KT 24/20 A30 RMK A01 T02380200  RH  084%=      5-min Rain = 0
KPAD 251555Z 18009KT 24/20 A30 RMK A01 T02400201  RH  084%=      5-min Rain = 0
KPAD 251600Z 18012KT 24/20 A30 RMK A01 T02420201  RH  083%=      5-min Rain = 0
KPAD 251605Z 18011KT 24/20 A30 RMK A01 T02440201  RH  082%=      5-min Rain = 0
KPAD 251610Z 17012G17KT 24/20 A30 RMK A01 T02420199  RH  081%=      5-min Rain = 0
KPAD 251615Z 17011G16KT 24/20 A30 RMK A01 T02410199  RH  082%=      5-min Rain = 0
KPAD 251620Z 17011KT 24/20 A30 RMK A01 T02410200  RH  082%=      5-min Rain = 0
KPAD 251625Z 18011KT 24/20 A30 RMK A01 T02410200  RH  082%=      5-min Rain = 0
KPAD 251630Z 18011KT 24/20 A2999 RMK A01 T02420201  RH  082%=      5-min Rain = 0
KPAD 251635Z 18012G17KT 24/20 A2999 RMK A01 T02440200  RH  081%=      5-min Rain = 0
KPAD 251640Z 18012G17KT 24/20 A2999 RMK A01 T02440200  RH  081%=      5-min Rain = 0
KPAD 251645Z 18012KT 25/20 A30 RMK A01 T02460201  RH  081%=      5-min Rain = 0
KPAD 251650Z 18013KT 25/20 A30 RMK A01 T02450199  RH  080%=      5-min Rain = 0
KPAD 251655Z 18010KT 24/20 A30 RMK A01 T02440201  RH  081%=      5-min Rain = 0
KPAD 251700Z 18010KT 25/20 A30 RMK A01 T02450202  RH  081%=      5-min Rain = 0
KPAD 251705Z 18009KT 25/20 A30 RMK A01 T02460202  RH  081%=      5-min Rain = 0
KPAD 251710Z 18011KT 25/20 A30 RMK A01 T02450201  RH  081%=      5-min Rain = 0
KPAD 251715Z 18011G16KT 25/20 A2999 RMK A01 T02460201  RH  081%=      5-min Rain = 0
KPAD 251720Z 18012KT 25/20 A2999 RMK A01 T02480201  RH  080%=      5-min Rain = 0
KPAD 251725Z 18011KT 25/20 A2999 RMK A01 T02520204  RH  079%=      5-min Rain = 0
KPAD 251730Z 18013KT 26/20 A2999 RMK A01 T02560204  RH  077%=      5-min Rain = 0
KPAD 251735Z 18011G17KT 26/20 A2999 RMK A01 T02570204  RH  077%=      5-min Rain = 0
KPAD 251740Z 17013G18KT 26/20 A2998 RMK A01 T02550203  RH  077%=      5-min Rain = 0
KPAD 251745Z 17012KT 26/20 A2998 RMK A01 T02550204  RH  078%=      5-min Rain = 0
KPAD 251750Z 17010G15KT 26/21 A2998 RMK A01 T02570206  RH  078%=      5-min Rain = 0
KPAD 251755Z 17012KT 26/21 A2998 RMK A01 T02580205  RH  077%=      5-min Rain = 0
KPAD 251800Z 18013G19KT 26/21 A2997 RMK A01 T02610207  RH  077%=      5-min Rain = 0
KPAD 251805Z 18013G18KT 27/21 A2997 RMK A01 T02670208  RH  075%=      5-min Rain = 0
KPAD 251810Z 17012KT 27/21 A2997 RMK A01 T02650208  RH  076%=      5-min Rain = 0
KPAD 251815Z 17011G17KT 27/21 A2996 RMK A01 T02670209  RH  075%=      5-min Rain = 0
KPAD 251820Z 17011G16KT 27/21 A2996 RMK A01 T02670210  RH  075%=      5-min Rain = 0
KPAD 251825Z 17012G17KT 27/21 A2996 RMK A01 T02700209  RH  074%=      5-min Rain = 0
KPAD 251830Z 17013G19KT 27/21 A2996 RMK A01 T02660207  RH  074%=      5-min Rain = 0
KPAD 251835Z 18012G18KT 28/22 A2996 RMK A01 T02750215  RH  074%=      5-min Rain = 0
KPAD 251840Z 18016G21KT 28/21 A2995 RMK A01 T02820209  RH  069%=      5-min Rain = 0
KPAD 251845Z 19016G22KT 28/21 A2995 RMK A01 T02790207  RH  069%=      5-min Rain = 0
KPAD 251850Z 19016G21KT 28/21 A2996 RMK A01 T02770206  RH  069%=      5-min Rain = 0
KPAD 251855Z 18015G20KT 28/21 A2996 RMK A01 T02780209  RH  071%=      5-min Rain = 0
KPAD 251900Z 18013G19KT 28/21 A2995 RMK A01 T02780209  RH  070%=      5-min Rain = 0
KPAD 251905Z 18015G20KT 27/21 A2995 RMK A01 T02730206  RH  071%=      5-min Rain = 0
KPAD 251910Z 19014G19KT 27/20 A2995 RMK A01 T02670203  RH  072%=      5-min Rain = 0
KPAD 251915Z 18012G17KT 27/21 A2995 RMK A01 T02670207  RH  074%=      5-min Rain = 0
KPAD 251920Z 18014G23KT 27/21 A2995 RMK A01 T02680205  RH  073%=      5-min Rain = 0
KPAD 251925Z 18015G20KT 27/21 A2995 RMK A01 T02670205  RH  073%=      5-min Rain = 0
KPAD 251930Z 18014G20KT 27/21 A2995 RMK A01 T02700206  RH  072%=      5-min Rain = 0
KPAD 251935Z 19015G21KT 27/21 A2995 RMK A01 T02730206  RH  071%=      5-min Rain = 0
KPAD 251940Z 18016G22KT 27/21 A2994 RMK A01 T02730205  RH  070%=      5-min Rain = 0
KPAD 251945Z 18017G22KT 27/21 A2994 RMK A01 T02730205  RH  071%=      5-min Rain = 0
KPAD 251950Z 18016G23KT 27/21 A2993 RMK A01 T02730205  RH  071%=      5-min Rain = 0
KPAD 251955Z 18015G21KT 27/21 A2993 RMK A01 T02740207  RH  071%=      5-min Rain = 0
KPAD 252000Z 18014G20KT 27/21 A2993 RMK A01 T02730207  RH  071%=      5-min Rain = 0
KPAD 252005Z 19016G23KT 28/21 A2993 RMK A01 T02750206  RH  070%=      5-min Rain = 0
KPAD 252010Z 18015G21KT 27/21 A2993 RMK A01 T02740205  RH  070%=      5-min Rain = 0
KPAD 252015Z 19016G21KT 27/21 A2992 RMK A01 T02740205  RH  070%=      5-min Rain = 0
KPAD 252020Z 19015G20KT 28/21 A2993 RMK A01 T02780207  RH  069%=      5-min Rain = 0
KPAD 252025Z 19016G21KT 28/21 A2993 RMK A01 T02780206  RH  069%=      5-min Rain = 0
KPAD 252030Z 18015G20KT 28/21 A2992 RMK A01 T02820209  RH  069%=      5-min Rain = 0
KPAD 252035Z 18018G24KT 29/21 A2991 RMK A01 T02880208  RH  066%=      5-min Rain = 0
KPAD 252040Z 18016G23KT 29/21 A2991 RMK A01 T02900210  RH  066%=      5-min Rain = 0
KPAD 252045Z 18017G22KT 29/21 A2991 RMK A01 T02880207  RH  066%=      5-min Rain = 0
KPAD 252050Z 17016G23KT 28/21 A2991 RMK A01 T02820208  RH  068%=      5-min Rain = 0
KPAD 252055Z 17017G22KT 28/21 A2992 RMK A01 T02780205  RH  068%=      5-min Rain = 0
KPAD 252100Z 18014G19KT 28/21 A2992 RMK A01 T02770206  RH  069%=      5-min Rain = 0
KPAD 252105Z 18013G18KT 28/21 A2992 RMK A01 T02780208  RH  070%=      5-min Rain = 0
KPAD 252110Z 18016G24KT 28/20 A2992 RMK A01 T02790204  RH  068%=      5-min Rain = 0
KPAD 252115Z 18015G24KT 28/20 A2992 RMK A01 T02780204  RH  068%=      5-min Rain = 0
KPAD 252120Z 18016G21KT 28/20 A2991 RMK A01 T02770204  RH  068%=      5-min Rain = 0
KPAD 252125Z 18015G21KT 28/21 A2991 RMK A01 T02790205  RH  068%=      5-min Rain = 0
KPAD 252130Z 17014G19KT 29/21 A2991 RMK A01 T02850211  RH  068%=      5-min Rain = 0
KPAD 252135Z 17017G23KT 28/21 A2991 RMK A01 T02830205  RH  067%=      5-min Rain = 0
KPAD 252140Z 18015G22KT 28/21 A299 RMK A01 T02810206  RH  068%=      5-min Rain = 0
KPAD 252145Z 18019G25KT 28/20 A2989 RMK A01 T02820203  RH  066%=      5-min Rain = 0
KPAD 252150Z 18017G26KT 28/21 A2989 RMK A01 T02830206  RH  067%=      5-min Rain = 0
KPAD 252155Z 18018G26KT 28/21 A2989 RMK A01 T02830206  RH  067%=      5-min Rain = 0
KPAD 252200Z 17018G26KT 29/21 A2989 RMK A01 T02850205  RH  066%=      5-min Rain = 0
KPAD 252205Z 17020G26KT 29/20 A2988 RMK A01 T02880204  RH  064%=      5-min Rain = 0
KPAD 252210Z 17018G25KT 29/21 A2988 RMK A01 T02870206  RH  066%=      5-min Rain = 0
KPAD 252215Z 17017G25KT 28/21 A2988 RMK A01 T02810206  RH  067%=      5-min Rain = 0
KPAD 252220Z 18016G24KT 28/21 A2989 RMK A01 T02780205  RH  069%=      5-min Rain = 0
KPAD 252225Z 18019G25KT 28/20 A2989 RMK A01 T02790203  RH  067%=      5-min Rain = 0
KPAD 252230Z 17017G22KT 28/20 A2989 RMK A01 T02800204  RH  067%=      5-min Rain = 0
KPAD 252235Z 17018KT 28/20 A2988 RMK A01 T02780203  RH  068%=      5-min Rain = 0
KPAD 252240Z 17016KT 28/21 A2987 RMK A01 T02770205  RH  069%=      5-min Rain = 0
KPAD 252245Z 17017G25KT 28/21 A2987 RMK A01 T02800206  RH  068%=      5-min Rain = 0
KPAD 252250Z 17017G23KT 28/21 A2988 RMK A01 T02810206  RH  068%=      5-min Rain = 0
KPAD 252255Z 17017G24KT 28/20 A2986 RMK A01 T02760204  RH  069%=      5-min Rain = 0
KPAD 252300Z 16016G23KT 27/20 A2986 RMK A01 T02730204  RH  070%=      5-min Rain = 0
KPAD 252305Z 16018G25KT 27/20 A2985 RMK A01 T02710202  RH  070%=      5-min Rain = 0
KPAD 252310Z 17015G22KT 27/20 A2986 RMK A01 T02690202  RH  071%=      5-min Rain = 0
KPAD 252315Z 17014G20KT 27/20 A2986 RMK A01 T02670203  RH  072%=      5-min Rain = 0
KPAD 252320Z 17014G19KT 27/20 A2986 RMK A01 T02660203  RH  073%=      5-min Rain = 0
KPAD 252325Z 17012KT 27/20 A2987 RMK A01 T02660204  RH  073%=      5-min Rain = 0
KPAD 252330Z 18010KT 27/21 A2988 RMK A01 T02650205  RH  074%=      5-min Rain = 0
KPAD 252335Z 18009KT 26/21 A2988 RMK A01 T02640205  RH  074%=      5-min Rain = 0
KPAD 252340Z 18009KT 26/20 A2989 RMK A01 T02640204  RH  074%=      5-min Rain = 0
KPAD 252345Z 18008KT 26/20 A2989 RMK A01 T02640204  RH  074%=      5-min Rain = 0
KPAD 252350Z 18009KT 27/20 A299 RMK A01 T02650204  RH  074%=      5-min Rain = 0
KPAD 252355Z 19008KT 26/20 A299 RMK A01 T02640204  RH  074%=      5-min Rain = 0
KPAD 260000Z 19009KT 26/20 A299 RMK A01 T02640204  RH  074%=      5-min Rain = 0
KPAD 260005Z 19009KT 26/20 A299 RMK A01 T02630204  RH  074%=      5-min Rain = 0
KPAD 260010Z 18010G15KT 26/20 A2989 RMK A01 T02620204  RH  075%=      5-min Rain = 0
KPAD 260015Z 18012KT 26/20 A2988 RMK A01 T02610204  RH  075%=      5-min Rain = 0
KPAD 260020Z 17012KT 26/20 A2987 RMK A01 T02620204  RH  075%=      5-min Rain = 0
KPAD 260025Z 17012KT 26/20 A2987 RMK A01 T02610204  RH  075%=      5-min Rain = 0
KPAD 260030Z 17012KT 26/20 A2987 RMK A01 T02580204  RH  077%=      5-min Rain = 0
KPAD 260035Z 17012G17KT 26/20 A2987 RMK A01 T02580204  RH  077%=      5-min Rain = 0
KPAD 260040Z 17012KT 26/20 A2987 RMK A01 T02570204  RH  077%=      5-min Rain = 0
KPAD 260045Z 17012KT 26/21 A2987 RMK A01 T02570205  RH  077%=      5-min Rain = 0
KPAD 260050Z 18011KT 26/21 A2988 RMK A01 T02570205  RH  078%=      5-min Rain = 0
KPAD 260055Z 18011KT 26/21 A2988 RMK A01 T02590205  RH  077%=      5-min Rain = 0
KPAD 260100Z 18010G15KT 26/21 A2989 RMK A01 T02600205  RH  076%=      5-min Rain = 0
KPAD 260105Z 18008KT 26/21 A299 RMK A01 T02600205  RH  076%=      5-min Rain = 0
KPAD 260110Z 18008KT 26/21 A299 RMK A01 T02590205  RH  077%=      5-min Rain = 0
KPAD 260115Z 18008KT 26/21 A299 RMK A01 T02580205  RH  077%=      5-min Rain = 0
KPAD 260120Z 18009KT 26/21 A299 RMK A01 T02570205  RH  078%=      5-min Rain = 0
KPAD 260125Z 18008KT 26/21 A299 RMK A01 T02560205  RH  078%=      5-min Rain = 0
KPAD 260130Z 18008KT 26/21 A299 RMK A01 T02550205  RH  078%=      5-min Rain = 0
KPAD 260135Z 18008KT 25/20 A299 RMK A01 T02540204  RH  079%=      5-min Rain = 0
KPAD 260140Z 18007KT 25/20 A299 RMK A01 T02530204  RH  079%=      5-min Rain = 0
KPAD 260145Z 18007KT 25/20 A2991 RMK A01 T02520203  RH  079%=      5-min Rain = 0
KPAD 260150Z 18007KT 25/20 A2991 RMK A01 T02510202  RH  079%=      5-min Rain = 0
KPAD 260155Z 17007KT 25/20 A2991 RMK A01 T02490202  RH  080%=      5-min Rain = 0
KPAD 260200Z 18007KT 25/20 A2991 RMK A01 T02460201  RH  081%=      5-min Rain = 0
KPAD 260205Z 18008KT 25/20 A2991 RMK A01 T02450201  RH  081%=      5-min Rain = 0
KPAD 260210Z 18009KT 25/20 A2991 RMK A01 T02450202  RH  081%=      5-min Rain = 0
KPAD 260215Z 18011KT 25/20 A299 RMK A01 T02470202  RH  080%=      5-min Rain = 0
KPAD 260220Z 18011G16KT 25/20 A299 RMK A01 T02500202  RH  079%=      5-min Rain = 0
KPAD 260225Z 17011KT 25/20 A299 RMK A01 T02500201  RH  078%=      5-min Rain = 0
KPAD 260230Z 17011KT 25/20 A299 RMK A01 T02490200  RH  079%=      5-min Rain = 0
KPAD 260235Z 17011KT 25/20 A299 RMK A01 T02480200  RH  079%=      5-min Rain = 0
KPAD 260240Z 17011KT 25/20 A299 RMK A01 T02470200  RH  080%=      5-min Rain = 0
KPAD 260245Z 17011KT 25/20 A299 RMK A01 T02450199  RH  080%=      5-min Rain = 0
KPAD 260250Z 17012KT 24/20 A299 RMK A01 T02440199  RH  081%=      5-min Rain = 0
KPAD 260255Z 17013G18KT 24/20 A2991 RMK A01 T02440199  RH  081%=      5-min Rain = 0
KPAD 260300Z 17013KT 25/20 A2991 RMK A01 T02450199  RH  080%=      5-min Rain = 0
KPAD 260305Z 17013KT 25/20 A2991 RMK A01 T02460199  RH  080%=      5-min Rain = 0
KPAD 260310Z 17013KT 25/20 A299 RMK A01 T02450199  RH  080%=      5-min Rain = 0
KPAD 260315Z 17012KT 25/20 A299 RMK A01 T02450198  RH  080%=      5-min Rain = 0
KPAD 260320Z 17012KT 24/20 A299 RMK A01 T02440198  RH  080%=      5-min Rain = 0
KPAD 260325Z 17012KT 24/20 A299 RMK A01 T02430198  RH  081%=      5-min Rain = 0
KPAD 260330Z 17011KT 24/20 A2991 RMK A01 T02410198  RH  081%=      5-min Rain = 0
KPAD 260335Z 16010G15KT 24/20 A2991 RMK A01 T02400198  RH  082%=      5-min Rain = 0
KPAD 260340Z 16010KT 24/20 A2991 RMK A01 T02400197  RH  082%=      5-min Rain = 0
KPAD 260345Z 16010KT 24/20 A2991 RMK A01 T02380197  RH  083%=      5-min Rain = 0
KPAD 260350Z 16010KT 24/20 A2991 RMK A01 T02370197  RH  083%=      5-min Rain = 0
KPAD 260355Z 16009KT 24/20 A2991 RMK A01 T02350197  RH  083%=      5-min Rain = 0
KPAD 260400Z 16009KT 23/20 A2991 RMK A01 T02340197  RH  084%=      5-min Rain = 0
KPAD 260405Z 15008KT 23/20 A2991 RMK A01 T02330197  RH  085%=      5-min Rain = 0
KPAD 260410Z 14007KT 23/20 A2991 RMK A01 T02310196  RH  085%=      5-min Rain = 0
KPAD 260415Z 14007KT 23/20 A2992 RMK A01 T02290196  RH  086%=      5-min Rain = 0
KPAD 260420Z 13008KT 23/20 A2992 RMK A01 T02280197  RH  087%=      5-min Rain = 0
KPAD 260425Z 13009KT 23/20 A2992 RMK A01 T02280198  RH  088%=      5-min Rain = 0
KPAD 260430Z 13008KT 23/20 A2993 RMK A01 T02270198  RH  088%=      5-min Rain = 0
KPAD 260435Z 13009KT 23/20 A2993 RMK A01 T02250197  RH  089%=      5-min Rain = 0
KPAD 260440Z 13010KT 23/20 A2993 RMK A01 T02250198  RH  090%=      5-min Rain = 0
KPAD 260445Z 13010KT 23/20 A2993 RMK A01 T02250199  RH  090%=      5-min Rain = 0
KPAD 260450Z 13010KT 23/20 A2994 RMK A01 T02250199  RH  090%=      5-min Rain = 0
KPAD 260455Z 13011KT 23/20 A2994 RMK A01 T02260199  RH  090%=      5-min Rain = 0

Page generated in 0.0245 seconds.